CPX244 Details

Departure: Norman Manley International Airport (MKJP)
Arrival: Miami International Airport (KMIA) at N/A
Route: UCA UA301 URSUS FLIPR6
Notes:


Current Weather Information
MKJP 171700Z 15013KT 9999 FEW022 31/25 Q1016
KMIA 171653Z 14008KT 110V190 10SM SCT035 BKN050 BKN120 BKN250 33/23 A3009 RMK AO2 LTG DSNT NW SLP191 CB DSNT NW T03330228